Time;durP1;ratioP1;P1;durP2;ratioP2;P2;SDS_P1;SDS_P2;PMS_P1;PMS_P2;Temp;Humidity;BMP_temperature;BMP_pressure;BME280_temperature;BME280_humidity;BME280_pressure;Samples;Min_cycle;Max_cycle;Signal;HPM_P1;HPM_P2
2022/10/28 00:00:21;;;;;;;9.65;3.25;;;;;;;;;;5008271;28;20053;-76
2022/10/28 00:02:47;;;;;;;21.50;3.75;;;;;;;;;;4996866;28;20030;-76
2022/10/28 00:05:13;;;;;;;12.20;3.63;;;;;;;;;;4996415;28;20042;-76
2022/10/28 00:07:39;;;;;;;17.95;3.70;;;;;;;;;;5012215;28;20429;-76
2022/10/28 00:10:05;;;;;;;17.85;4.00;;;;;;;;;;5007473;28;20058;-76
2022/10/28 00:12:34;;;;;;;15.40;4.57;;;;;;;;;;5009587;28;20033;-76
2022/10/28 00:15:00;;;;;;;14.23;4.05;;;;;;;;;;5012661;28;20038;-76
2022/10/28 00:17:26;;;;;;;16.25;4.60;;;;;;;;;;5006210;28;20029;-76
2022/10/28 00:19:52;;;;;;;17.80;4.80;;;;;;;;;;5012625;28;20428;-76
2022/10/28 00:22:18;;;;;;;14.85;3.63;;;;;;;;;;5011037;28;20026;-76
2022/10/28 00:24:44;;;;;;;18.60;4.28;;;;;;;;;;4998994;28;20038;-76
2022/10/28 00:27:10;;;;;;;16.35;4.50;;;;;;;;;;5009116;28;20144;-76
2022/10/28 00:29:36;;;;;;;14.43;5.20;;;;;;;;;;5012023;28;20057;-76
2022/10/28 00:32:02;;;;;;;13.50;4.15;;;;;;;;;;5005423;28;20392;-76
2022/10/28 00:34:28;;;;;;;11.15;3.80;;;;;;;;;;5010763;28;20049;-76
2022/10/28 00:36:54;;;;;;;14.57;3.97;;;;;;;;;;5012657;28;20033;-76
2022/10/28 00:39:21;;;;;;;22.15;5.22;;;;;;;;;;5011741;28;20359;-76
2022/10/28 00:41:50;;;;;;;19.67;4.70;;;;;;;;;;5006938;28;20424;-75
2022/10/28 00:44:34;;;;;;;15.82;4.25;;;;;;;;;;5011462;28;20515;-76
2022/10/28 00:47:00;;;;;;;19.42;3.92;;;;;;;;;;5006818;28;20556;-76
2022/10/28 00:49:28;;;;;;;20.20;3.45;;;;;;;;;;5002325;28;20070;-76
2022/10/28 00:51:59;;;;;;;16.58;3.47;;;;;;;;;;4995144;28;20493;-76
2022/10/28 00:54:25;;;;;;;16.50;3.55;;;;;;;;;;4996751;28;20034;-76
2022/10/28 00:56:52;;;;;;;20.13;2.80;;;;;;;;;;5011971;28;20030;-76
2022/10/28 00:59:31;;;;;;;13.13;3.45;;;;;;;;;;4999313;28;20034;-76
2022/10/28 01:01:57;;;;;;;19.23;3.40;;;;;;;;;;4993014;28;20030;-76
2022/10/28 01:04:23;;;;;;;14.50;3.05;;;;;;;;;;5001840;28;20057;-76
2022/10/28 01:06:50;;;;;;;10.27;2.80;;;;;;;;;;5004327;28;20028;-76
2022/10/28 01:09:16;;;;;;;16.77;3.70;;;;;;;;;;5010839;28;20585;-76
2022/10/28 01:11:54;;;;;;;19.40;3.50;;;;;;;;;;5011423;28;20120;-76
2022/10/28 01:14:20;;;;;;;21.25;3.20;;;;;;;;;;5010172;28;20487;-76
2022/10/28 01:17:05;;;;;;;18.20;5.07;;;;;;;;;;5011034;28;20037;-76
2022/10/28 01:19:53;;;;;;;21.80;4.22;;;;;;;;;;5009985;28;20030;-76
2022/10/28 01:22:19;;;;;;;15.63;3.45;;;;;;;;;;5011335;28;20048;-75
2022/10/28 01:24:45;;;;;;;19.17;4.35;;;;;;;;;;5008914;28;20485;-76
2022/10/28 01:27:20;;;;;;;15.35;3.50;;;;;;;;;;5011350;28;20026;-76
2022/10/28 01:29:46;;;;;;;13.52;3.33;;;;;;;;;;5007402;28;20132;-76
2022/10/28 01:32:15;;;;;;;21.20;4.35;;;;;;;;;;5002337;28;20030;-76
2022/10/28 01:35:00;;;;;;;17.23;3.53;;;;;;;;;;5009321;28;20042;-76
2022/10/28 01:37:49;;;;;;;12.60;3.78;;;;;;;;;;5009931;28;20061;-76
2022/10/28 01:40:18;;;;;;;16.50;4.65;;;;;;;;;;5001369;28;20030;-76
2022/10/28 01:42:45;;;;;;;16.77;6.88;;;;;;;;;;5011058;28;20030;-76
2022/10/28 01:45:18;;;;;;;19.13;5.22;;;;;;;;;;5002304;28;20081;-76
2022/10/28 01:47:50;;;;;;;14.43;4.53;;;;;;;;;;5011102;28;20033;-76
2022/10/28 01:50:16;;;;;;;;;;;;;;;;;;5007789;28;20374;-75
2022/10/28 01:52:43;;;;;;;15.80;3.65;;;;;;;;;;5001903;28;19935;-76
2022/10/28 01:55:15;;;;;;;17.50;3.20;;;;;;;;;;5010395;28;20116;-76
2022/10/28 01:57:41;;;;;;;15.95;4.50;;;;;;;;;;5010845;28;20036;-76
2022/10/28 02:00:08;;;;;;;18.38;4.72;;;;;;;;;;5006561;28;20074;-76
2022/10/28 02:02:35;;;;;;;14.88;3.63;;;;;;;;;;5001040;28;20034;-76
2022/10/28 02:05:06;;;;;;;12.15;3.80;;;;;;;;;;5010415;28;20438;-76
2022/10/28 02:07:32;;;;;;;15.77;4.28;;;;;;;;;;5008624;28;20031;-76
2022/10/28 02:10:15;;;;;;;16.08;3.83;;;;;;;;;;5007148;28;20077;-76
2022/10/28 02:12:43;;;;;;;14.45;4.55;;;;;;;;;;5010211;28;20484;-76
2022/10/28 02:15:18;;;;;;;13.85;3.65;;;;;;;;;;5002040;28;20142;-76
2022/10/28 02:17:50;;;;;;;16.58;4.00;;;;;;;;;;4999563;28;20715;-76
2022/10/28 02:20:16;;;;;;;18.45;4.88;;;;;;;;;;5010260;28;20850;-75
2022/10/28 02:23:05;;;;;;;15.10;4.40;;;;;;;;;;5010016;28;20038;-76
2022/10/28 02:25:30;;;;;;;15.38;3.88;;;;;;;;;;5006071;28;20476;-76
2022/10/28 02:27:56;;;;;;;18.88;5.88;;;;;;;;;;5003979;28;20105;-76
2022/10/28 02:30:24;;;;;;;22.05;4.88;;;;;;;;;;5006461;28;20457;-76
2022/10/28 02:32:53;;;;;;;27.10;4.80;;;;;;;;;;5010261;28;20041;-75
2022/10/28 02:35:29;;;;;;;15.30;4.75;;;;;;;;;;5009870;28;20141;-76
2022/10/28 02:37:56;;;;;;;13.18;4.10;;;;;;;;;;5004619;28;20060;-76
2022/10/28 02:40:24;;;;;;;16.95;4.65;;;;;;;;;;5001304;28;20061;-75
2022/10/28 02:42:52;;;;;;;12.00;3.88;;;;;;;;;;5008749;28;20508;-76
2022/10/28 02:45:20;;;;;;;14.18;4.45;;;;;;;;;;5009303;28;20727;-76
2022/10/28 02:47:51;;;;;;;17.27;4.00;;;;;;;;;;4996568;28;20084;-76
2022/10/28 02:50:20;;;;;;;19.95;4.60;;;;;;;;;;4991776;28;20088;-76
2022/10/28 02:52:48;;;;;;;24.42;5.60;;;;;;;;;;5004238;28;20549;-77
2022/10/28 02:55:14;;;;;;;19.13;4.38;;;;;;;;;;5007339;28;20037;-76
2022/10/28 02:57:42;;;;;;;21.83;4.60;;;;;;;;;;4993641;28;20462;-76
2022/10/28 03:00:10;;;;;;;25.08;4.03;;;;;;;;;;5008814;28;20362;-76
2022/10/28 03:02:37;;;;;;;20.13;4.28;;;;;;;;;;5003771;28;20156;-77
2022/10/28 03:05:04;;;;;;;19.23;5.32;;;;;;;;;;5004059;28;20038;-76
2022/10/28 03:07:30;;;;;;;14.75;4.28;;;;;;;;;;5005888;28;20493;-76
2022/10/28 03:09:56;;;;;;;17.80;4.63;;;;;;;;;;5002713;28;20034;-75
2022/10/28 03:12:22;;;;;;;18.42;5.40;;;;;;;;;;5001012;28;20117;-76
2022/10/28 03:14:48;;;;;;;21.38;5.55;;;;;;;;;;4997168;28;20045;-76
2022/10/28 03:17:14;;;;;;;18.80;5.75;;;;;;;;;;5009745;28;20033;-76
2022/10/28 03:19:40;;;;;;;20.05;4.70;;;;;;;;;;4999824;28;20034;-76
2022/10/28 03:22:06;;;;;;;17.48;4.82;;;;;;;;;;4995546;28;20034;-76
2022/10/28 03:24:32;;;;;;;17.70;5.15;;;;;;;;;;5003454;28;20042;-75
2022/10/28 03:26:59;;;;;;;17.98;5.20;;;;;;;;;;5009403;28;20052;-76
2022/10/28 03:29:25;;;;;;;17.25;5.40;;;;;;;;;;5007332;28;20045;-76
2022/10/28 03:31:51;;;;;;;19.17;4.28;;;;;;;;;;4999087;28;20038;-76
2022/10/28 03:34:17;;;;;;;18.00;4.18;;;;;;;;;;5001385;28;20431;-76
2022/10/28 03:36:43;;;;;;;17.83;4.53;;;;;;;;;;5009229;28;20117;-76
2022/10/28 03:39:09;;;;;;;15.95;3.83;;;;;;;;;;5012614;28;20029;-76
2022/10/28 03:41:35;;;;;;;12.98;3.97;;;;;;;;;;5009699;28;20077;-76
2022/10/28 03:44:01;;;;;;;17.48;3.85;;;;;;;;;;5002521;28;20109;-76
2022/10/28 03:46:27;;;;;;;17.77;4.95;;;;;;;;;;4998080;28;20041;-76
2022/10/28 03:48:53;;;;;;;17.65;4.88;;;;;;;;;;5008645;28;20049;-77
2022/10/28 03:51:19;;;;;;;25.83;5.30;;;;;;;;;;5009042;28;20080;-76
2022/10/28 03:53:45;;;;;;;16.67;4.88;;;;;;;;;;5002390;28;20018;-76
2022/10/28 03:56:11;;;;;;;22.13;6.35;;;;;;;;;;5007922;28;20077;-76
2022/10/28 03:58:37;;;;;;;17.02;4.63;;;;;;;;;;5008970;28;20029;-76
2022/10/28 04:01:03;;;;;;;22.15;5.88;;;;;;;;;;4999623;28;20116;-77
2022/10/28 04:03:29;;;;;;;25.75;5.97;;;;;;;;;;5007936;28;20105;-76
2022/10/28 04:05:55;;;;;;;21.40;5.80;;;;;;;;;;5012188;28;20117;-76
2022/10/28 04:08:21;;;;;;;31.40;12.52;;;;;;;;;;5009026;28;20037;-75
2022/10/28 04:10:48;;;;;;;41.22;15.77;;;;;;;;;;5002735;28;20065;-76
2022/10/28 04:13:14;;;;;;;24.45;10.95;;;;;;;;;;5004915;28;20025;-77
2022/10/28 04:15:40;;;;;;;29.42;10.23;;;;;;;;;;5003533;28;20738;-76
2022/10/28 04:18:06;;;;;;;31.02;9.43;;;;;;;;;;5003922;28;20085;-76
2022/10/28 04:20:32;;;;;;;18.35;8.43;;;;;;;;;;5003307;28;20080;-76
2022/10/28 04:22:59;;;;;;;22.15;8.80;;;;;;;;;;4998599;28;20129;-75
2022/10/28 04:25:26;;;;;;;29.80;9.02;;;;;;;;;;5003272;28;20038;-77
2022/10/28 04:27:51;;;;;;;24.67;7.68;;;;;;;;;;5010734;28;20034;-76
2022/10/28 04:30:18;;;;;;;17.00;6.80;;;;;;;;;;4995407;28;20489;-76
2022/10/28 04:32:44;;;;;;;26.80;7.00;;;;;;;;;;5008430;28;20029;-76
2022/10/28 04:35:10;;;;;;;26.75;7.53;;;;;;;;;;5008407;28;20693;-76
2022/10/28 04:37:36;;;;;;;30.35;6.43;;;;;;;;;;5004580;28;20041;-77
2022/10/28 04:40:03;;;;;;;20.42;6.93;;;;;;;;;;5005712;28;20046;-76
2022/10/28 04:42:29;;;;;;;26.50;6.72;;;;;;;;;;4992619;28;20478;-76
2022/10/28 04:44:55;;;;;;;25.48;6.78;;;;;;;;;;4998281;28;20440;-76
2022/10/28 04:47:21;;;;;;;28.98;6.53;;;;;;;;;;5011168;28;20026;-76
2022/10/28 04:49:47;;;;;;;17.58;5.47;;;;;;;;;;5010535;28;20061;-76
2022/10/28 04:52:13;;;;;;;21.27;4.63;;;;;;;;;;5003470;28;20128;-75
2022/10/28 04:54:39;;;;;;;25.38;5.10;;;;;;;;;;4992786;28;20049;-76
2022/10/28 04:57:05;;;;;;;17.58;4.38;;;;;;;;;;5011783;28;20687;-76
2022/10/28 04:59:31;;;;;;;26.65;4.05;;;;;;;;;;5005108;28;20033;-76
2022/10/28 05:01:57;;;;;;;22.70;4.13;;;;;;;;;;5012044;28;20030;-76
2022/10/28 05:04:23;;;;;;;16.60;3.47;;;;;;;;;;5008011;28;20042;-76
2022/10/28 05:06:49;;;;;;;14.77;3.35;;;;;;;;;;5011059;28;20034;-75
2022/10/28 05:09:15;;;;;;;20.75;3.85;;;;;;;;;;4993908;28;20042;-76
2022/10/28 05:11:41;;;;;;;21.25;5.45;;;;;;;;;;5010283;28;20104;-76
2022/10/28 05:14:07;;;;;;;24.60;6.10;;;;;;;;;;5011863;28;20033;-76
2022/10/28 05:16:33;;;;;;;20.02;5.70;;;;;;;;;;4993370;28;20037;-76
2022/10/28 05:18:59;;;;;;;25.95;5.40;;;;;;;;;;5009908;28;20077;-76
2022/10/28 05:21:25;;;;;;;23.10;5.47;;;;;;;;;;5011114;28;20081;-76
2022/10/28 05:23:51;;;;;;;20.17;5.57;;;;;;;;;;5005552;28;20710;-76
2022/10/28 05:26:17;;;;;;;26.90;5.68;;;;;;;;;;5002384;28;20048;-76
2022/10/28 05:28:43;;;;;;;21.35;4.50;;;;;;;;;;5010858;28;20041;-76
2022/10/28 05:31:10;;;;;;;24.73;4.85;;;;;;;;;;4998555;28;20037;-76
2022/10/28 05:33:36;;;;;;;23.35;5.32;;;;;;;;;;5009735;28;20488;-76
2022/10/28 05:36:02;;;;;;;18.23;5.05;;;;;;;;;;5008089;28;20054;-76
2022/10/28 05:38:28;;;;;;;18.90;5.47;;;;;;;;;;5007320;28;20025;-76
2022/10/28 05:40:54;;;;;;;18.55;5.57;;;;;;;;;;5004074;28;20496;-76
2022/10/28 05:43:20;;;;;;;19.83;5.90;;;;;;;;;;5003172;28;20033;-76
2022/10/28 05:45:52;;;;;;;27.80;6.35;;;;;;;;;;5010215;28;20080;-76
2022/10/28 05:48:18;;;;;;;17.58;6.28;;;;;;;;;;5010908;28;20687;-76
2022/10/28 05:50:44;;;;;;;17.05;5.65;;;;;;;;;;5011612;28;20038;-76
2022/10/28 05:53:10;;;;;;;21.23;4.50;;;;;;;;;;5014767;28;20030;-76
2022/10/28 05:55:36;;;;;;;24.88;5.20;;;;;;;;;;5007332;28;20042;-76
2022/10/28 05:58:03;;;;;;;23.52;5.38;;;;;;;;;;5003674;28;20030;-76
2022/10/28 06:00:29;;;;;;;20.83;5.97;;;;;;;;;;5006831;28;20034;-76
2022/10/28 06:03:08;;;;;;;17.05;5.90;;;;;;;;;;5009094;28;20060;-76
2022/10/28 06:05:34;;;;;;;21.00;5.28;;;;;;;;;;5005589;28;20116;-76
2022/10/28 06:08:00;;;;;;;26.30;5.68;;;;;;;;;;5009861;28;20057;-76
2022/10/28 06:10:26;;;;;;;20.65;6.32;;;;;;;;;;5004866;28;20037;-76
2022/10/28 06:12:55;;;;;;;27.08;7.25;;;;;;;;;;5009391;28;20508;-76
2022/10/28 06:15:21;;;;;;;22.88;6.30;;;;;;;;;;5009932;28;20042;-76
2022/10/28 06:17:48;;;;;;;25.45;6.78;;;;;;;;;;5010165;28;20030;-76
2022/10/28 06:20:14;;;;;;;27.20;7.82;;;;;;;;;;5011939;28;20389;-76
2022/10/28 06:23:00;;;;;;;21.13;6.28;;;;;;;;;;5013894;28;20030;-76
2022/10/28 06:25:27;;;;;;;24.70;6.15;;;;;;;;;;5005140;28;20049;-76
2022/10/28 06:27:56;;;;;;;26.50;6.65;;;;;;;;;;5004223;28;20044;-75
2022/10/28 06:30:23;;;;;;;36.92;6.18;;;;;;;;;;5013410;28;20099;-76
2022/10/28 06:32:49;;;;;;;33.20;7.03;;;;;;;;;;5017784;28;20084;-76
2022/10/28 06:35:15;;;;;;;19.13;6.00;;;;;;;;;;5009837;28;20053;-76
2022/10/28 06:37:41;;;;;;;18.88;6.30;;;;;;;;;;5008729;28;20084;-76
2022/10/28 06:40:07;;;;;;;22.05;6.85;;;;;;;;;;5015555;28;20034;-76
2022/10/28 06:42:34;;;;;;;23.85;6.50;;;;;;;;;;5021673;28;20117;-76
2022/10/28 06:45:00;;;;;;;21.73;5.75;;;;;;;;;;5010421;28;20486;-76
2022/10/28 06:47:26;;;;;;;21.90;6.18;;;;;;;;;;5012716;28;20026;-76
2022/10/28 06:49:51;;;;;;;25.13;6.82;;;;;;;;;;5009076;28;20034;-76
2022/10/28 06:52:17;;;;;;;28.50;7.38;;;;;;;;;;5008938;28;20040;-76
2022/10/28 06:54:43;;;;;;;22.05;6.95;;;;;;;;;;5017309;28;20855;-76
2022/10/28 06:57:10;;;;;;;26.38;7.00;;;;;;;;;;5009773;28;20045;-76
2022/10/28 06:59:36;;;;;;;30.20;6.97;;;;;;;;;;5015468;28;20030;-76
2022/10/28 07:02:02;;;;;;;32.25;6.93;;;;;;;;;;5000024;28;20157;-76
2022/10/28 07:04:29;;;;;;;25.65;6.47;;;;;;;;;;5003250;28;20084;-76
2022/10/28 07:06:55;;;;;;;25.00;7.70;;;;;;;;;;4996611;28;20038;-76
2022/10/28 07:09:21;;;;;;;22.75;6.15;;;;;;;;;;5010475;28;20068;-76
2022/10/28 07:11:47;;;;;;;18.85;5.88;;;;;;;;;;5013783;28;20037;-76
2022/10/28 07:14:13;;;;;;;21.85;6.90;;;;;;;;;;5013650;28;20033;-76
2022/10/28 07:16:41;;;;;;;25.20;7.53;;;;;;;;;;5012094;28;20037;-76
2022/10/28 07:19:07;;;;;;;31.25;7.22;;;;;;;;;;5002724;28;20026;-76
2022/10/28 07:21:33;;;;;;;29.00;6.03;;;;;;;;;;5015367;28;20034;-75
2022/10/28 07:23:59;;;;;;;23.83;6.45;;;;;;;;;;5012946;28;20030;-76
2022/10/28 07:26:25;;;;;;;26.83;6.72;;;;;;;;;;5006723;28;20044;-76
2022/10/28 07:28:51;;;;;;;20.42;6.45;;;;;;;;;;5008731;28;20080;-76
2022/10/28 07:31:17;;;;;;;20.08;5.55;;;;;;;;;;5014398;28;20041;-76
2022/10/28 07:33:43;;;;;;;19.25;5.35;;;;;;;;;;5009425;28;20101;-76
2022/10/28 07:36:10;;;;;;;22.27;7.00;;;;;;;;;;5005034;28;20046;-77
2022/10/28 07:38:36;;;;;;;21.40;6.20;;;;;;;;;;5001145;28;20392;-76
2022/10/28 07:41:06;;;;;;;19.35;5.63;;;;;;;;;;5005971;28;20531;-75
2022/10/28 07:43:35;;;;;;;22.05;6.35;;;;;;;;;;5001026;28;20038;-76
2022/10/28 07:46:00;;;;;;;22.50;7.00;;;;;;;;;;4996413;28;20040;-76
2022/10/28 07:48:26;;;;;;;31.55;7.85;;;;;;;;;;4998904;28;20033;-76
2022/10/28 07:50:52;;;;;;;27.20;6.88;;;;;;;;;;5004337;28;20100;-76
2022/10/28 07:53:18;;;;;;;23.00;7.95;;;;;;;;;;5002423;28;20041;-76
2022/10/28 07:55:44;;;;;;;27.20;8.00;;;;;;;;;;5011027;28;20037;-76
2022/10/28 07:58:10;;;;;;;23.95;7.93;;;;;;;;;;5008345;28;20034;-75
2022/10/28 08:00:36;;;;;;;26.80;7.30;;;;;;;;;;5006449;28;20042;-76
2022/10/28 08:03:02;;;;;;;23.40;6.88;;;;;;;;;;5001350;28;20045;-76
2022/10/28 08:05:28;;;;;;;28.23;6.07;;;;;;;;;;4998549;28;20049;-75
2022/10/28 08:07:54;;;;;;;27.77;6.28;;;;;;;;;;5007380;28;20030;-76
2022/10/28 08:10:20;;;;;;;21.40;5.82;;;;;;;;;;5003263;28;20066;-76
2022/10/28 08:12:46;;;;;;;23.27;6.95;;;;;;;;;;5005301;28;20128;-76
2022/10/28 08:15:14;;;;;;;32.72;7.00;;;;;;;;;;5009622;28;20030;-75
2022/10/28 08:17:40;;;;;;;30.58;6.47;;;;;;;;;;5006435;28;20033;-76
2022/10/28 08:20:07;;;;;;;28.77;6.95;;;;;;;;;;5012657;28;20044;-76
2022/10/28 08:22:33;;;;;;;22.05;7.07;;;;;;;;;;5011100;28;20049;-76
2022/10/28 08:24:58;;;;;;;33.03;7.57;;;;;;;;;;5012156;28;20754;-76
2022/10/28 08:27:25;;;;;;;24.45;8.63;;;;;;;;;;5006883;28;20037;-76
2022/10/28 08:29:52;;;;;;;34.65;11.15;;;;;;;;;;5011869;28;20033;-76
2022/10/28 08:32:18;;;;;;;30.38;10.27;;;;;;;;;;5011822;28;20034;-76
2022/10/28 08:34:44;;;;;;;26.83;9.15;;;;;;;;;;4999702;28;20516;-76
2022/10/28 08:37:10;;;;;;;24.05;8.13;;;;;;;;;;5010183;28;20027;-76
2022/10/28 08:39:36;;;;;;;29.05;7.80;;;;;;;;;;5008533;28;20366;-76
2022/10/28 08:42:06;;;;;;;25.80;8.05;;;;;;;;;;5004088;28;20034;-76
2022/10/28 08:44:38;;;;;;;21.98;6.50;;;;;;;;;;5010193;28;20034;-76
2022/10/28 08:47:04;;;;;;;21.85;5.82;;;;;;;;;;5009258;28;20082;-76
2022/10/28 08:49:32;;;;;;;16.52;4.95;;;;;;;;;;5011158;28;20180;-76
2022/10/28 08:52:18;;;;;;;19.58;4.70;;;;;;;;;;5005559;28;20109;-76
2022/10/28 08:54:46;;;;;;;18.85;4.82;;;;;;;;;;4991902;28;20120;-76
2022/10/28 08:57:20;;;;;;;14.07;3.53;;;;;;;;;;5004446;28;20030;-76
2022/10/28 08:59:50;;;;;;;16.80;3.83;;;;;;;;;;5007608;28;20073;-76
2022/10/28 09:02:21;;;;;;;16.42;4.80;;;;;;;;;;5010817;28;20462;-76
2022/10/28 09:04:48;;;;;;;32.67;6.53;;;;;;;;;;5006386;28;20069;-76
2022/10/28 09:07:19;;;;;;;25.58;5.53;;;;;;;;;;5017871;28;20041;-77
2022/10/28 09:09:46;;;;;;;40.10;7.38;;;;;;;;;;5015518;28;20030;-76
2022/10/28 09:12:22;;;;;;;29.20;5.97;;;;;;;;;;5013989;28;20033;-76
2022/10/28 09:15:13;;;;;;;18.90;5.45;;;;;;;;;;5010544;28;20026;-77
2022/10/28 09:17:53;;;;;;;20.15;4.80;;;;;;;;;;5010286;28;20065;-76
2022/10/28 09:20:20;;;;;;;27.20;4.95;;;;;;;;;;5009313;28;20034;-76
2022/10/28 09:22:49;;;;;;;18.00;4.22;;;;;;;;;;5015048;28;20033;-76
2022/10/28 09:25:21;;;;;;;21.38;3.92;;;;;;;;;;5007944;28;20034;-76
2022/10/28 09:27:48;;;;;;;16.05;4.63;;;;;;;;;;5009224;28;20148;-76
2022/10/28 09:30:20;;;;;;;17.65;5.50;;;;;;;;;;5006252;28;20033;-76
2022/10/28 09:32:53;;;;;;;14.65;4.43;;;;;;;;;;5011790;28;20030;-76
2022/10/28 09:35:21;;;;;;;16.92;4.00;;;;;;;;;;4998089;28;20046;-77
2022/10/28 09:37:49;;;;;;;19.70;3.60;;;;;;;;;;5001656;28;20041;-76
2022/10/28 09:40:18;;;;;;;14.73;4.10;;;;;;;;;;5012804;28;20553;-76
2022/10/28 09:43:03;;;;;;;19.48;4.18;;;;;;;;;;5009119;28;20654;-76
2022/10/28 09:45:30;;;;;;;15.27;4.05;;;;;;;;;;5007144;28;20065;-76
2022/10/28 09:47:58;;;;;;;13.68;3.70;;;;;;;;;;5002460;28;20182;-76
2022/10/28 09:50:28;;;;;;;17.08;4.05;;;;;;;;;;5003129;28;20039;-76
2022/10/28 09:53:09;;;;;;;18.50;4.70;;;;;;;;;;5004003;28;20101;-76
2022/10/28 09:55:35;;;;;;;24.20;5.03;;;;;;;;;;5004081;28;20121;-76
2022/10/28 09:58:02;;;;;;;20.48;5.32;;;;;;;;;;5010238;28;20140;-76
2022/10/28 10:00:28;;;;;;;22.13;4.75;;;;;;;;;;5002717;28;20096;-76
2022/10/28 10:02:59;;;;;;;20.55;4.45;;;;;;;;;;5007732;28;20477;-76
2022/10/28 10:05:25;;;;;;;24.17;4.30;;;;;;;;;;5004809;28;20500;-76
2022/10/28 10:07:57;;;;;;;13.60;4.28;;;;;;;;;;5008505;28;20034;-76
2022/10/28 10:10:25;;;;;;;19.55;4.60;;;;;;;;;;5014057;28;20045;-76
2022/10/28 10:12:52;;;;;;;19.05;3.83;;;;;;;;;;5013551;28;20583;-76
2022/10/28 10:15:24;;;;;;;16.85;4.60;;;;;;;;;;5003558;28;20044;-77
2022/10/28 10:17:50;;;;;;;;;;;;;;;;;;5018527;28;20026;-76
2022/10/28 10:20:19;;;;;;;12.18;3.35;;;;;;;;;;5016114;28;19929;-76
2022/10/28 10:22:46;;;;;;;18.80;4.13;;;;;;;;;;5010354;28;20108;-76
2022/10/28 10:25:18;;;;;;;17.63;4.47;;;;;;;;;;5011237;28;20038;-76
2022/10/28 10:27:59;;;;;;;14.80;3.65;;;;;;;;;;5007636;28;20366;-76
2022/10/28 10:30:28;;;;;;;17.10;3.95;;;;;;;;;;5008484;28;20042;-76
2022/10/28 10:32:54;;;;;;;13.30;3.35;;;;;;;;;;5005517;28;20041;-76
2022/10/28 10:35:23;;;;;;;19.95;4.07;;;;;;;;;;5008036;28;20137;-77
2022/10/28 10:37:50;;;;;;;15.57;3.50;;;;;;;;;;5005867;28;20034;-76
2022/10/28 10:40:24;;;;;;;13.00;3.50;;;;;;;;;;5007035;28;20052;-76
2022/10/28 10:42:50;;;;;;;11.00;2.95;;;;;;;;;;5006826;28;20037;-76
2022/10/28 10:45:22;;;;;;;14.98;3.20;;;;;;;;;;5008793;28;20469;-76
2022/10/28 10:47:48;;;;;;;19.33;3.70;;;;;;;;;;5008292;28;20083;-76
2022/10/28 10:50:21;;;;;;;12.45;3.58;;;;;;;;;;5008604;28;20038;-76
2022/10/28 10:52:52;;;;;;;15.27;3.47;;;;;;;;;;5005425;28;20072;-76
2022/10/28 10:55:38;;;;;;;14.13;3.42;;;;;;;;;;5001337;28;20037;-76
2022/10/28 10:58:05;;;;;;;20.40;3.22;;;;;;;;;;5006562;28;20432;-76
2022/10/28 11:00:34;;;;;;;11.20;3.67;;;;;;;;;;5005314;28;20548;-76
2022/10/28 11:03:01;;;;;;;22.25;4.63;;;;;;;;;;5016941;28;20042;-77
2022/10/28 11:05:27;;;;;;;9.82;3.00;;;;;;;;;;5008771;28;20025;-76
2022/10/28 11:07:53;;;;;;;10.95;3.83;;;;;;;;;;5011874;28;20042;-76
2022/10/28 11:10:22;;;;;;;13.00;4.00;;;;;;;;;;5001867;28;20034;-76
2022/10/28 11:12:53;;;;;;;24.52;3.83;;;;;;;;;;5004284;28;20058;-76
2022/10/28 11:15:21;;;;;;;13.23;2.90;;;;;;;;;;5002300;28;20048;-76
2022/10/28 11:17:56;;;;;;;20.23;3.03;;;;;;;;;;5002951;28;20019;-76
2022/10/28 11:20:29;;;;;;;15.98;2.95;;;;;;;;;;5006818;28;20042;-76
2022/10/28 11:23:01;;;;;;;17.00;3.35;;;;;;;;;;5009710;28;20076;-76
2022/10/28 11:25:36;;;;;;;19.13;3.67;;;;;;;;;;5007449;28;20113;-77
2022/10/28 11:28:07;;;;;;;18.08;3.55;;;;;;;;;;5005861;28;20369;-76
2022/10/28 11:31:06;;;;;;;18.83;3.75;;;;;;;;;;5010735;28;20038;-76
2022/10/28 11:33:41;;;;;;;15.60;2.65;;;;;;;;;;4961474;28;20042;-76
2022/10/28 11:36:28;;;;;;;20.08;3.92;;;;;;;;;;5004915;28;20184;-76
2022/10/28 11:39:12;;;;;;;24.55;3.95;;;;;;;;;;5010950;28;20030;-77
2022/10/28 11:41:53;;;;;;;14.77;2.90;;;;;;;;;;5001888;28;20033;-76
2022/10/28 11:44:19;;;;;;;19.95;4.22;;;;;;;;;;5002710;28;20041;-76
2022/10/28 11:46:56;;;;;;;19.38;3.63;;;;;;;;;;5004973;28;20052;-76
2022/10/28 11:49:25;;;;;;;11.98;3.47;;;;;;;;;;5005149;28;20080;-77
2022/10/28 11:51:54;;;;;;;23.20;3.20;;;;;;;;;;5001086;28;20042;-76
2022/10/28 11:54:32;;;;;;;20.33;3.05;;;;;;;;;;5005311;28;20109;-76
2022/10/28 11:56:58;;;;;;;14.93;3.53;;;;;;;;;;5005113;28;20034;-76
2022/10/28 11:59:43;;;;;;;14.02;3.03;;;;;;;;;;5012476;28;20040;-76
2022/10/28 12:02:28;;;;;;;18.80;3.00;;;;;;;;;;5003786;28;20048;-76
2022/10/28 12:04:54;;;;;;;15.93;2.92;;;;;;;;;;5002933;28;22129;-77
2022/10/28 12:07:19;;;;;;;15.40;2.70;;;;;;;;;;5008485;28;20041;-76
2022/10/28 12:09:51;;;;;;;11.07;3.38;;;;;;;;;;5012502;28;20481;-76
2022/10/28 12:12:17;;;;;;;;;;;;;;;;;;4996905;28;20038;-77
2022/10/28 12:14:46;;;;;;;12.77;2.92;;;;;;;;;;5006992;28;19972;-76
2022/10/28 12:17:15;;;;;;;14.18;3.10;;;;;;;;;;4999289;28;20385;-76
2022/10/28 12:19:51;;;;;;;14.02;2.88;;;;;;;;;;5005429;28;21743;-76
2022/10/28 12:22:37;;;;;;;13.50;2.55;;;;;;;;;;5005269;28;20034;-76
2022/10/28 12:25:08;;;;;;;18.73;2.85;;;;;;;;;;4994474;28;20555;-77
2022/10/28 12:27:37;;;;;;;17.38;3.35;;;;;;;;;;5005359;28;20030;-76
2022/10/28 12:30:06;;;;;;;13.50;2.47;;;;;;;;;;4998384;28;20088;-76
2022/10/28 12:32:34;;;;;;;13.20;2.53;;;;;;;;;;5004794;28;20038;-76
2022/10/28 12:35:03;;;;;;;16.23;3.33;;;;;;;;;;5008651;28;20489;-76
2022/10/28 12:37:36;;;;;;;16.48;2.58;;;;;;;;;;5005444;28;20096;-76
2022/10/28 12:40:11;;;;;;;12.68;2.70;;;;;;;;;;5006390;28;20049;-76
2022/10/28 12:42:41;;;;;;;13.80;2.45;;;;;;;;;;5008997;28;20083;-76
2022/10/28 12:45:11;;;;;;;14.50;2.83;;;;;;;;;;5004956;28;20961;-77
2022/10/28 12:47:48;;;;;;;28.77;3.90;;;;;;;;;;5008891;28;20036;-76
2022/10/28 12:50:20;;;;;;;15.60;1.98;;;;;;;;;;5006163;28;20664;-76
2022/10/28 12:52:52;;;;;;;14.43;2.40;;;;;;;;;;5016500;28;20033;-76
2022/10/28 12:55:21;;;;;;;16.75;2.63;;;;;;;;;;5007547;28;20034;-76
2022/10/28 12:57:51;;;;;;;16.98;3.08;;;;;;;;;;5004324;28;20154;-77
2022/10/28 13:00:28;;;;;;;13.15;2.30;;;;;;;;;;5001803;28;20064;-76
2022/10/28 13:03:01;;;;;;;12.45;2.63;;;;;;;;;;4998662;28;20053;-76
2022/10/28 13:05:30;;;;;;;14.90;2.45;;;;;;;;;;4998724;28;20100;-76
2022/10/28 13:08:21;;;;;;;12.88;2.20;;;;;;;;;;5004403;28;20026;-76
2022/10/28 13:10:56;;;;;;;10.40;3.10;;;;;;;;;;5000078;28;20046;-77
2022/10/28 13:13:28;;;;;;;13.18;2.97;;;;;;;;;;5004032;28;20864;-76
2022/10/28 13:16:15;;;;;;;22.45;3.42;;;;;;;;;;5018130;28;20025;-76
2022/10/28 13:18:59;;;;;;;14.35;3.38;;;;;;;;;;5008723;28;20032;-76
2022/10/28 13:21:41;;;;;;;12.10;2.97;;;;;;;;;;5012258;28;20473;-76
2022/10/28 13:24:07;;;;;;;;;;;;;;;;;;5010080;28;20052;-76
2022/10/28 13:26:35;;;;;;;20.38;2.95;;;;;;;;;;5014039;28;20492;-76
2022/10/28 13:29:02;;;;;;;17.55;3.13;;;;;;;;;;5008815;28;20809;-76
2022/10/28 13:31:43;;;;;;;16.40;3.03;;;;;;;;;;5005440;28;20475;-76
2022/10/28 13:34:10;;;;;;;20.58;3.35;;;;;;;;;;5004371;28;20512;-76
2022/10/28 13:36:39;;;;;;;17.15;2.78;;;;;;;;;;5013669;28;20034;-76
2022/10/28 13:39:07;;;;;;;14.82;3.58;;;;;;;;;;5005645;28;20540;-77
2022/10/28 13:41:35;;;;;;;16.48;3.65;;;;;;;;;;5008102;28;20049;-76
2022/10/28 13:44:09;;;;;;;13.43;2.95;;;;;;;;;;5005411;28;20059;-77
2022/10/28 13:46:54;;;;;;;17.17;3.38;;;;;;;;;;5009405;28;20058;-76
2022/10/28 13:49:24;;;;;;;15.75;2.67;;;;;;;;;;5008992;28;20532;-76
2022/10/28 13:51:51;;;;;;;15.05;2.97;;;;;;;;;;5005539;28;20117;-76
2022/10/28 13:54:24;;;;;;;14.88;2.80;;;;;;;;;;5007738;28;20038;-76
2022/10/28 13:56:50;;;;;;;15.77;2.83;;;;;;;;;;5009730;28;20080;-76
2022/10/28 13:59:19;;;;;;;11.10;2.15;;;;;;;;;;5006466;28;20038;-77
2022/10/28 14:01:49;;;;;;;13.93;2.22;;;;;;;;;;5009461;28;20387;-76
2022/10/28 14:04:38;;;;;;;15.80;3.10;;;;;;;;;;5008017;28;20050;-76
2022/10/28 14:07:04;;;;;;;16.50;2.58;;;;;;;;;;4996425;28;20057;-76
2022/10/28 14:09:32;;;;;;;14.60;2.60;;;;;;;;;;5012180;28;20042;-76
2022/10/28 14:12:18;;;;;;;11.68;2.50;;;;;;;;;;5008501;28;20040;-76
2022/10/28 14:14:55;;;;;;;11.13;2.22;;;;;;;;;;5005398;28;20057;-76
2022/10/28 14:17:23;;;;;;;13.75;2.40;;;;;;;;;;5016120;28;20038;-76
2022/10/28 14:19:51;;;;;;;13.30;2.20;;;;;;;;;;5009756;28;20096;-76
2022/10/28 14:22:34;;;;;;;12.57;1.92;;;;;;;;;;5012102;28;20155;-76
2022/10/28 14:25:00;;;;;;;7.68;1.45;;;;;;;;;;5006870;28;20045;-76
2022/10/28 14:27:27;;;;;;;13.13;2.65;;;;;;;;;;5006628;28;20496;-76
2022/10/28 14:29:56;;;;;;;13.90;2.72;;;;;;;;;;5013827;28;20033;-76
2022/10/28 14:32:48;;;;;;;27.25;17.60;;;;;;;;;;5007655;28;20442;-76
2022/10/28 14:35:14;;;;;;;12.05;4.60;;;;;;;;;;4997455;28;20050;-76
2022/10/28 14:37:59;;;;;;;15.13;3.33;;;;;;;;;;5006254;28;20388;-76
2022/10/28 14:40:32;;;;;;;13.30;2.00;;;;;;;;;;5005372;28;20045;-76
2022/10/28 14:42:58;;;;;;;12.27;2.88;;;;;;;;;;4999489;28;20753;-76